LiveATC.Net - Listen to live air traffic control over the Internet!


ICAO: KBUU  IATA: BUU   Airport: Burlington Municipal Airport
City: Burlington   State/Province: Wisconsin
Country: United States   Continent: North America
KBUU METAR Weather: KBUU 210415Z AUTO 25013G20KT 10SM OVC032 00/M04 A2980 RMK AO2 T00001042
KBUU Flight Activity (FlightAware)
KBUU Airport Info   (iFlightPlanner)
KBUU VFR Sectional Chart   (iFlightPlanner) 
KBUU IFR Low Chart   (iFlightPlanner) 

3CK/KBUU CTAF
Feed Status: UP   Listeners: 0
Listen in your browser - HTML5 player (in browser, HTML5)
Click here to listen with your own player (launches your MP3 player)
3CK/KBUU CTAF Audio Archives
FacilityFrequency
Lake in the Hills CTAF123.050

NOTICE

Unauthorized use prohibited. See LiveATC.net Terms of Service


Find LiveATC Audio Streams


Airport/ARTCC Code

Frequency Search
(e.g., 124.400, 128.75)
Site-wide search
 


Browse LiveATC Feeds
Top 50 LiveATC Feeds
LiveATC Feed Map
Bad Weather Areas

LiveATC FAQ
Offer LiveATC feed
Contact LiveATC.net
Press Inquiries

LiveATC on iPhone
LiveATC on Android

Windows Phone
Windows 8/10

LiveATC Mobile
(Mobile browser)

ATC Audio Archives
Interesting Recordings

LiveATC Forums


Home Page
About LiveATC.net
Make a Donation
Terms of Use
Privacy Policy

Canadian Air Freqs

AIRMETs/SIGMETs

FAA Airport Status
Nat'l Airspace Status
Arrival Demand Charts


Server Software By:
Icecast.org
Liquidsoap